sensor_id;sensor_type;location;lat;lon;timestamp;P1;durP1;ratioP1;P2;durP2;ratioP2
41480;SDS011;27217;51.220;5.308;2023-03-15T00:02:05;26.75;;;6.55;;
41480;SDS011;27217;51.220;5.308;2023-03-15T00:04:31;23.00;;;7.25;;
41480;SDS011;27217;51.220;5.308;2023-03-15T00:06:57;24.23;;;6.07;;
41480;SDS011;27217;51.220;5.308;2023-03-15T00:09:23;23.25;;;6.50;;
41480;SDS011;27217;51.220;5.308;2023-03-15T00:11:49;15.98;;;5.20;;
41480;SDS011;27217;51.220;5.308;2023-03-15T00:14:16;13.80;;;6.35;;
41480;SDS011;27217;51.220;5.308;2023-03-15T00:16:42;20.60;;;5.88;;
41480;SDS011;27217;51.220;5.308;2023-03-15T00:19:09;13.18;;;5.10;;
41480;SDS011;27217;51.220;5.308;2023-03-15T00:21:35;13.32;;;5.45;;
41480;SDS011;27217;51.220;5.308;2023-03-15T00:24:01;19.48;;;5.03;;
41480;SDS011;27217;51.220;5.308;2023-03-15T00:26:27;12.88;;;4.47;;
41480;SDS011;27217;51.220;5.308;2023-03-15T00:28:53;6.10;;;3.10;;
41480;SDS011;27217;51.220;5.308;2023-03-15T00:31:20;3.47;;;2.42;;
41480;SDS011;27217;51.220;5.308;2023-03-15T00:33:48;6.20;;;2.50;;
41480;SDS011;27217;51.220;5.308;2023-03-15T00:36:18;7.13;;;3.20;;
41480;SDS011;27217;51.220;5.308;2023-03-15T00:38:47;5.93;;;2.70;;
41480;SDS011;27217;51.220;5.308;2023-03-15T00:41:14;7.28;;;3.30;;
41480;SDS011;27217;51.220;5.308;2023-03-15T00:43:42;4.78;;;3.15;;
41480;SDS011;27217;51.220;5.308;2023-03-15T00:46:08;7.30;;;3.75;;
41480;SDS011;27217;51.220;5.308;2023-03-15T00:48:35;9.75;;;3.85;;
41480;SDS011;27217;51.220;5.308;2023-03-15T00:51:06;5.53;;;3.38;;
41480;SDS011;27217;51.220;5.308;2023-03-15T00:56:06;12.48;;;3.88;;
41480;SDS011;27217;51.220;5.308;2023-03-15T00:58:35;13.75;;;4.63;;
41480;SDS011;27217;51.220;5.308;2023-03-15T01:01:05;14.65;;;5.22;;
41480;SDS011;27217;51.220;5.308;2023-03-15T01:03:33;11.15;;;4.75;;
41480;SDS011;27217;51.220;5.308;2023-03-15T01:06:03;15.98;;;5.03;;
41480;SDS011;27217;51.220;5.308;2023-03-15T01:08:31;12.18;;;5.35;;
41480;SDS011;27217;51.220;5.308;2023-03-15T01:11:00;11.88;;;4.88;;
41480;SDS011;27217;51.220;5.308;2023-03-15T01:13:27;13.57;;;5.47;;
41480;SDS011;27217;51.220;5.308;2023-03-15T01:15:53;16.30;;;5.68;;
41480;SDS011;27217;51.220;5.308;2023-03-15T01:18:19;14.48;;;6.03;;
41480;SDS011;27217;51.220;5.308;2023-03-15T01:20:45;17.67;;;6.47;;
41480;SDS011;27217;51.220;5.308;2023-03-15T01:23:11;13.50;;;5.25;;
41480;SDS011;27217;51.220;5.308;2023-03-15T01:25:36;13.27;;;5.43;;
41480;SDS011;27217;51.220;5.308;2023-03-15T01:28:03;19.10;;;5.80;;
41480;SDS011;27217;51.220;5.308;2023-03-15T01:30:29;16.92;;;6.15;;
41480;SDS011;27217;51.220;5.308;2023-03-15T01:32:56;9.68;;;5.80;;
41480;SDS011;27217;51.220;5.308;2023-03-15T01:35:22;13.27;;;5.97;;
41480;SDS011;27217;51.220;5.308;2023-03-15T01:37:48;15.32;;;6.25;;
41480;SDS011;27217;51.220;5.308;2023-03-15T01:40:15;18.33;;;5.30;;
41480;SDS011;27217;51.220;5.308;2023-03-15T01:54:19;11.07;;;4.55;;
41480;SDS011;27217;51.220;5.308;2023-03-15T01:57:03;9.65;;;4.95;;
41480;SDS011;27217;51.220;5.308;2023-03-15T01:59:35;9.75;;;4.28;;
41480;SDS011;27217;51.220;5.308;2023-03-15T02:02:16;8.77;;;4.95;;
41480;SDS011;27217;51.220;5.308;2023-03-15T02:04:47;10.50;;;6.10;;
41480;SDS011;27217;51.220;5.308;2023-03-15T02:07:17;11.27;;;5.35;;
41480;SDS011;27217;51.220;5.308;2023-03-15T02:09:52;9.98;;;4.88;;
41480;SDS011;27217;51.220;5.308;2023-03-15T02:12:25;11.48;;;7.15;;
41480;SDS011;27217;51.220;5.308;2023-03-15T02:14:54;13.10;;;6.13;;
41480;SDS011;27217;51.220;5.308;2023-03-15T02:17:23;11.30;;;6.55;;
41480;SDS011;27217;51.220;5.308;2023-03-15T02:20:04;12.10;;;6.57;;
41480;SDS011;27217;51.220;5.308;2023-03-15T02:22:55;9.43;;;6.60;;
41480;SDS011;27217;51.220;5.308;2023-03-15T02:28:22;13.25;;;7.15;;
41480;SDS011;27217;51.220;5.308;2023-03-15T02:30:49;11.93;;;7.53;;
41480;SDS011;27217;51.220;5.308;2023-03-15T02:35:49;15.85;;;7.97;;
41480;SDS011;27217;51.220;5.308;2023-03-15T02:38:15;13.48;;;8.10;;
41480;SDS011;27217;51.220;5.308;2023-03-15T02:40:41;13.63;;;7.97;;
41480;SDS011;27217;51.220;5.308;2023-03-15T02:43:11;20.33;;;9.27;;
41480;SDS011;27217;51.220;5.308;2023-03-15T02:45:43;18.48;;;9.52;;
41480;SDS011;27217;51.220;5.308;2023-03-15T02:48:10;17.45;;;9.02;;
41480;SDS011;27217;51.220;5.308;2023-03-15T02:50:36;20.02;;;10.40;;
41480;SDS011;27217;51.220;5.308;2023-03-15T02:53:03;21.15;;;11.57;;
41480;SDS011;27217;51.220;5.308;2023-03-15T02:55:29;21.00;;;10.77;;
41480;SDS011;27217;51.220;5.308;2023-03-15T02:57:58;18.50;;;10.35;;
41480;SDS011;27217;51.220;5.308;2023-03-15T03:00:25;25.33;;;11.98;;
41480;SDS011;27217;51.220;5.308;2023-03-15T03:02:51;21.90;;;9.25;;
41480;SDS011;27217;51.220;5.308;2023-03-15T03:05:17;18.95;;;10.07;;
41480;SDS011;27217;51.220;5.308;2023-03-15T03:07:44;24.27;;;11.90;;
41480;SDS011;27217;51.220;5.308;2023-03-15T03:10:11;24.73;;;11.18;;
41480;SDS011;27217;51.220;5.308;2023-03-15T03:12:39;25.48;;;12.35;;
41480;SDS011;27217;51.220;5.308;2023-03-15T03:15:06;22.77;;;11.80;;
41480;SDS011;27217;51.220;5.308;2023-03-15T03:17:32;29.65;;;12.48;;
41480;SDS011;27217;51.220;5.308;2023-03-15T03:20:03;32.17;;;13.07;;
41480;SDS011;27217;51.220;5.308;2023-03-15T03:22:32;22.15;;;12.15;;
41480;SDS011;27217;51.220;5.308;2023-03-15T03:24:58;24.98;;;11.48;;
41480;SDS011;27217;51.220;5.308;2023-03-15T03:27:24;24.05;;;11.48;;
41480;SDS011;27217;51.220;5.308;2023-03-15T03:29:51;19.70;;;10.40;;
41480;SDS011;27217;51.220;5.308;2023-03-15T03:32:17;21.80;;;10.30;;
41480;SDS011;27217;51.220;5.308;2023-03-15T03:34:43;21.13;;;11.77;;
41480;SDS011;27217;51.220;5.308;2023-03-15T03:37:13;20.65;;;10.95;;
41480;SDS011;27217;51.220;5.308;2023-03-15T03:39:41;26.15;;;13.90;;
41480;SDS011;27217;51.220;5.308;2023-03-15T03:42:06;18.88;;;10.68;;
41480;SDS011;27217;51.220;5.308;2023-03-15T03:44:33;28.73;;;12.45;;
41480;SDS011;27217;51.220;5.308;2023-03-15T03:46:59;24.00;;;12.45;;
41480;SDS011;27217;51.220;5.308;2023-03-15T03:49:25;26.23;;;12.43;;
41480;SDS011;27217;51.220;5.308;2023-03-15T03:51:54;26.58;;;14.27;;
41480;SDS011;27217;51.220;5.308;2023-03-15T03:54:20;29.10;;;14.82;;
41480;SDS011;27217;51.220;5.308;2023-03-15T03:56:48;26.38;;;14.35;;
41480;SDS011;27217;51.220;5.308;2023-03-15T03:59:15;31.88;;;15.18;;
41480;SDS011;27217;51.220;5.308;2023-03-15T04:01:41;33.28;;;15.80;;
41480;SDS011;27217;51.220;5.308;2023-03-15T04:04:08;32.22;;;16.27;;
41480;SDS011;27217;51.220;5.308;2023-03-15T04:06:34;34.25;;;16.92;;
41480;SDS011;27217;51.220;5.308;2023-03-15T04:09:00;33.17;;;17.50;;
41480;SDS011;27217;51.220;5.308;2023-03-15T04:11:29;39.40;;;18.75;;
41480;SDS011;27217;51.220;5.308;2023-03-15T04:13:55;43.67;;;19.40;;
41480;SDS011;27217;51.220;5.308;2023-03-15T04:16:21;44.28;;;19.08;;
41480;SDS011;27217;51.220;5.308;2023-03-15T04:18:48;40.25;;;20.23;;
41480;SDS011;27217;51.220;5.308;2023-03-15T04:21:14;43.53;;;20.30;;
41480;SDS011;27217;51.220;5.308;2023-03-15T04:23:39;47.03;;;21.25;;
41480;SDS011;27217;51.220;5.308;2023-03-15T04:26:06;44.83;;;21.08;;
41480;SDS011;27217;51.220;5.308;2023-03-15T04:28:32;47.45;;;19.92;;
41480;SDS011;27217;51.220;5.308;2023-03-15T04:30:58;36.08;;;19.00;;
41480;SDS011;27217;51.220;5.308;2023-03-15T04:33:25;40.63;;;19.52;;
41480;SDS011;27217;51.220;5.308;2023-03-15T04:35:52;36.88;;;18.17;;
41480;SDS011;27217;51.220;5.308;2023-03-15T04:38:18;37.63;;;18.40;;
41480;SDS011;27217;51.220;5.308;2023-03-15T04:40:50;39.47;;;18.13;;
41480;SDS011;27217;51.220;5.308;2023-03-15T04:43:18;33.25;;;16.15;;
41480;SDS011;27217;51.220;5.308;2023-03-15T04:45:44;34.22;;;16.52;;
41480;SDS011;27217;51.220;5.308;2023-03-15T04:48:11;35.15;;;17.10;;
41480;SDS011;27217;51.220;5.308;2023-03-15T04:50:36;36.83;;;15.90;;
41480;SDS011;27217;51.220;5.308;2023-03-15T04:53:02;28.65;;;15.15;;
41480;SDS011;27217;51.220;5.308;2023-03-15T04:55:28;31.70;;;14.10;;
41480;SDS011;27217;51.220;5.308;2023-03-15T04:57:54;28.33;;;14.07;;
41480;SDS011;27217;51.220;5.308;2023-03-15T05:00:21;24.38;;;11.80;;
41480;SDS011;27217;51.220;5.308;2023-03-15T05:02:47;29.20;;;13.55;;
41480;SDS011;27217;51.220;5.308;2023-03-15T05:05:19;24.00;;;11.93;;
41480;SDS011;27217;51.220;5.308;2023-03-15T05:07:46;26.17;;;12.43;;
41480;SDS011;27217;51.220;5.308;2023-03-15T05:10:12;23.65;;;11.63;;
41480;SDS011;27217;51.220;5.308;2023-03-15T05:12:37;28.60;;;11.30;;
41480;SDS011;27217;51.220;5.308;2023-03-15T05:15:03;28.85;;;11.60;;
41480;SDS011;27217;51.220;5.308;2023-03-15T05:17:30;23.40;;;11.98;;
41480;SDS011;27217;51.220;5.308;2023-03-15T05:19:57;25.05;;;11.73;;
41480;SDS011;27217;51.220;5.308;2023-03-15T05:22:25;26.55;;;10.70;;
41480;SDS011;27217;51.220;5.308;2023-03-15T05:24:51;22.52;;;10.95;;
41480;SDS011;27217;51.220;5.308;2023-03-15T05:27:18;27.75;;;10.57;;
41480;SDS011;27217;51.220;5.308;2023-03-15T05:29:44;30.02;;;10.88;;
41480;SDS011;27217;51.220;5.308;2023-03-15T05:32:10;26.23;;;9.75;;
41480;SDS011;27217;51.220;5.308;2023-03-15T05:34:36;24.20;;;9.85;;
41480;SDS011;27217;51.220;5.308;2023-03-15T05:37:02;23.00;;;9.45;;
41480;SDS011;27217;51.220;5.308;2023-03-15T05:39:27;22.35;;;9.52;;
41480;SDS011;27217;51.220;5.308;2023-03-15T05:41:54;19.85;;;9.38;;
41480;SDS011;27217;51.220;5.308;2023-03-15T05:44:20;25.95;;;9.45;;
41480;SDS011;27217;51.220;5.308;2023-03-15T05:46:47;16.35;;;8.30;;
41480;SDS011;27217;51.220;5.308;2023-03-15T05:49:13;24.02;;;9.45;;
41480;SDS011;27217;51.220;5.308;2023-03-15T05:51:39;27.75;;;10.27;;
41480;SDS011;27217;51.220;5.308;2023-03-15T05:54:08;23.92;;;9.93;;
41480;SDS011;27217;51.220;5.308;2023-03-15T05:56:34;27.63;;;10.55;;
41480;SDS011;27217;51.220;5.308;2023-03-15T05:58:59;21.90;;;9.77;;
41480;SDS011;27217;51.220;5.308;2023-03-15T06:01:27;26.20;;;9.85;;
41480;SDS011;27217;51.220;5.308;2023-03-15T06:03:54;30.92;;;10.57;;
41480;SDS011;27217;51.220;5.308;2023-03-15T06:06:19;26.35;;;10.15;;
41480;SDS011;27217;51.220;5.308;2023-03-15T06:08:45;21.38;;;8.38;;
41480;SDS011;27217;51.220;5.308;2023-03-15T06:11:11;20.42;;;8.93;;
41480;SDS011;27217;51.220;5.308;2023-03-15T06:13:36;20.70;;;8.48;;
41480;SDS011;27217;51.220;5.308;2023-03-15T06:16:03;23.27;;;7.60;;
41480;SDS011;27217;51.220;5.308;2023-03-15T06:18:29;30.48;;;8.65;;
41480;SDS011;27217;51.220;5.308;2023-03-15T06:20:55;23.67;;;10.10;;
41480;SDS011;27217;51.220;5.308;2023-03-15T06:23:21;22.48;;;8.02;;
41480;SDS011;27217;51.220;5.308;2023-03-15T06:25:47;19.30;;;7.80;;
41480;SDS011;27217;51.220;5.308;2023-03-15T06:28:12;17.50;;;7.65;;
41480;SDS011;27217;51.220;5.308;2023-03-15T06:30:38;20.92;;;7.72;;
41480;SDS011;27217;51.220;5.308;2023-03-15T06:33:04;22.15;;;7.57;;
41480;SDS011;27217;51.220;5.308;2023-03-15T06:35:30;25.88;;;8.07;;
41480;SDS011;27217;51.220;5.308;2023-03-15T06:37:57;20.60;;;8.07;;
41480;SDS011;27217;51.220;5.308;2023-03-15T06:40:22;17.92;;;8.40;;
41480;SDS011;27217;51.220;5.308;2023-03-15T06:42:48;15.25;;;7.25;;
41480;SDS011;27217;51.220;5.308;2023-03-15T06:45:14;16.10;;;5.82;;
41480;SDS011;27217;51.220;5.308;2023-03-15T06:47:40;21.20;;;7.38;;
41480;SDS011;27217;51.220;5.308;2023-03-15T06:50:06;21.83;;;7.95;;
41480;SDS011;27217;51.220;5.308;2023-03-15T06:52:32;19.50;;;7.82;;
41480;SDS011;27217;51.220;5.308;2023-03-15T06:54:58;16.33;;;8.07;;
41480;SDS011;27217;51.220;5.308;2023-03-15T06:57:24;0.10;;;0.10;;
41480;SDS011;27217;51.220;5.308;2023-03-15T06:59:50;0.10;;;0.10;;
41480;SDS011;27217;51.220;5.308;2023-03-15T07:02:18;0.10;;;0.10;;
41480;SDS011;27217;51.220;5.308;2023-03-15T07:04:43;0.00;;;0.00;;
41480;SDS011;27217;51.220;5.308;2023-03-15T07:07:10;0.75;;;0.75;;
41480;SDS011;27217;51.220;5.308;2023-03-15T07:09:36;1.45;;;0.40;;
41480;SDS011;27217;51.220;5.308;2023-03-15T07:12:02;0.00;;;0.00;;
41480;SDS011;27217;51.220;5.308;2023-03-15T07:14:28;0.10;;;0.10;;
41480;SDS011;27217;51.220;5.308;2023-03-15T07:16:54;0.10;;;0.10;;
41480;SDS011;27217;51.220;5.308;2023-03-15T07:19:20;0.10;;;0.10;;
41480;SDS011;27217;51.220;5.308;2023-03-15T07:21:46;0.60;;;0.60;;
41480;SDS011;27217;51.220;5.308;2023-03-15T07:24:12;0.00;;;0.00;;
41480;SDS011;27217;51.220;5.308;2023-03-15T07:26:39;0.00;;;0.00;;
41480;SDS011;27217;51.220;5.308;2023-03-15T07:29:05;0.20;;;0.20;;
41480;SDS011;27217;51.220;5.308;2023-03-15T07:31:31;0.65;;;0.47;;
41480;SDS011;27217;51.220;5.308;2023-03-15T07:33:57;0.10;;;0.10;;
41480;SDS011;27217;51.220;5.308;2023-03-15T07:36:23;0.00;;;0.00;;
41480;SDS011;27217;51.220;5.308;2023-03-15T07:38:49;0.00;;;0.00;;
41480;SDS011;27217;51.220;5.308;2023-03-15T07:41:15;0.43;;;0.43;;
41480;SDS011;27217;51.220;5.308;2023-03-15T07:43:41;0.20;;;0.20;;
41480;SDS011;27217;51.220;5.308;2023-03-15T07:46:07;0.22;;;0.22;;
41480;SDS011;27217;51.220;5.308;2023-03-15T07:48:33;0.25;;;0.20;;
41480;SDS011;27217;51.220;5.308;2023-03-15T07:50:58;0.10;;;0.10;;
41480;SDS011;27217;51.220;5.308;2023-03-15T07:53:24;0.13;;;0.13;;
41480;SDS011;27217;51.220;5.308;2023-03-15T07:55:50;0.10;;;0.10;;
41480;SDS011;27217;51.220;5.308;2023-03-15T07:58:16;0.00;;;0.00;;
41480;SDS011;27217;51.220;5.308;2023-03-15T08:00:42;2.97;;;1.55;;
41480;SDS011;27217;51.220;5.308;2023-03-15T08:03:08;0.10;;;0.10;;
41480;SDS011;27217;51.220;5.308;2023-03-15T08:05:34;0.00;;;0.00;;
41480;SDS011;27217;51.220;5.308;2023-03-15T08:08:00;0.00;;;0.00;;
41480;SDS011;27217;51.220;5.308;2023-03-15T08:10:26;0.00;;;0.00;;
41480;SDS011;27217;51.220;5.308;2023-03-15T08:12:52;0.00;;;0.00;;
41480;SDS011;27217;51.220;5.308;2023-03-15T08:15:18;0.22;;;0.20;;
41480;SDS011;27217;51.220;5.308;2023-03-15T08:17:45;0.10;;;0.10;;
41480;SDS011;27217;51.220;5.308;2023-03-15T08:20:11;0.85;;;0.85;;
41480;SDS011;27217;51.220;5.308;2023-03-15T08:22:41;1.00;;;0.90;;
41480;SDS011;27217;51.220;5.308;2023-03-15T08:25:11;0.00;;;0.00;;
41480;SDS011;27217;51.220;5.308;2023-03-15T08:27:38;0.38;;;0.38;;
41480;SDS011;27217;51.220;5.308;2023-03-15T08:30:04;0.50;;;0.50;;
41480;SDS011;27217;51.220;5.308;2023-03-15T08:32:30;0.00;;;0.00;;
41480;SDS011;27217;51.220;5.308;2023-03-15T08:34:56;0.20;;;0.20;;
41480;SDS011;27217;51.220;5.308;2023-03-15T08:37:22;0.05;;;0.05;;
41480;SDS011;27217;51.220;5.308;2023-03-15T08:39:48;13.00;;;2.38;;
41480;SDS011;27217;51.220;5.308;2023-03-15T08:42:22;0.00;;;0.00;;
41480;SDS011;27217;51.220;5.308;2023-03-15T08:44:50;0.20;;;0.20;;
41480;SDS011;27217;51.220;5.308;2023-03-15T08:47:16;0.52;;;0.52;;
41480;SDS011;27217;51.220;5.308;2023-03-15T08:49:42;0.00;;;0.00;;
41480;SDS011;27217;51.220;5.308;2023-03-15T08:52:08;0.00;;;0.00;;
41480;SDS011;27217;51.220;5.308;2023-03-15T08:54:34;0.05;;;0.05;;
41480;SDS011;27217;51.220;5.308;2023-03-15T08:57:00;0.38;;;0.38;;
41480;SDS011;27217;51.220;5.308;2023-03-15T08:59:26;2.30;;;1.65;;
41480;SDS011;27217;51.220;5.308;2023-03-15T09:01:51;0.00;;;0.00;;
41480;SDS011;27217;51.220;5.308;2023-03-15T09:04:17;0.00;;;0.00;;
41480;SDS011;27217;51.220;5.308;2023-03-15T09:06:43;0.00;;;0.00;;
41480;SDS011;27217;51.220;5.308;2023-03-15T09:09:09;0.00;;;0.00;;
41480;SDS011;27217;51.220;5.308;2023-03-15T09:11:35;0.00;;;0.00;;
41480;SDS011;27217;51.220;5.308;2023-03-15T09:14:01;0.00;;;0.00;;
41480;SDS011;27217;51.220;5.308;2023-03-15T09:16:27;0.15;;;0.15;;
41480;SDS011;27217;51.220;5.308;2023-03-15T09:18:52;1.58;;;1.48;;
41480;SDS011;27217;51.220;5.308;2023-03-15T09:21:18;0.00;;;0.00;;
41480;SDS011;27217;51.220;5.308;2023-03-15T09:23:44;0.00;;;0.00;;
41480;SDS011;27217;51.220;5.308;2023-03-15T09:26:10;0.00;;;0.00;;
41480;SDS011;27217;51.220;5.308;2023-03-15T09:28:36;0.10;;;0.10;;
41480;SDS011;27217;51.220;5.308;2023-03-15T09:31:04;2.80;;;1.75;;
41480;SDS011;27217;51.220;5.308;2023-03-15T09:33:31;0.25;;;0.25;;
41480;SDS011;27217;51.220;5.308;2023-03-15T09:35:57;0.00;;;0.00;;
41480;SDS011;27217;51.220;5.308;2023-03-15T09:38:23;0.00;;;0.00;;
41480;SDS011;27217;51.220;5.308;2023-03-15T09:40:50;0.00;;;0.00;;
41480;SDS011;27217;51.220;5.308;2023-03-15T09:54:03;1.92;;;0.47;;
41480;SDS011;27217;51.220;5.308;2023-03-15T09:56:36;0.00;;;0.00;;
41480;SDS011;27217;51.220;5.308;2023-03-15T09:59:09;0.00;;;0.00;;
41480;SDS011;27217;51.220;5.308;2023-03-15T10:01:38;0.10;;;0.10;;
41480;SDS011;27217;51.220;5.308;2023-03-15T10:04:23;0.15;;;0.15;;
41480;SDS011;27217;51.220;5.308;2023-03-15T10:06:58;0.08;;;0.08;;
41480;SDS011;27217;51.220;5.308;2023-03-15T10:09:27;0.00;;;0.00;;
41480;SDS011;27217;51.220;5.308;2023-03-15T10:12:04;0.00;;;0.00;;
41480;SDS011;27217;51.220;5.308;2023-03-15T10:20:22;0.10;;;0.10;;
41480;SDS011;27217;51.220;5.308;2023-03-15T10:25:38;0.00;;;0.00;;
41480;SDS011;27217;51.220;5.308;2023-03-15T10:30:37;5.60;;;1.83;;
41480;SDS011;27217;51.220;5.308;2023-03-15T10:36:16;8.07;;;1.02;;
41480;SDS011;27217;51.220;5.308;2023-03-15T10:38:46;8.77;;;1.50;;
41480;SDS011;27217;51.220;5.308;2023-03-15T10:41:13;5.07;;;1.50;;
41480;SDS011;27217;51.220;5.308;2023-03-15T10:43:57;6.20;;;1.27;;
41480;SDS011;27217;51.220;5.308;2023-03-15T10:46:26;6.53;;;2.40;;
41480;SDS011;27217;51.220;5.308;2023-03-15T10:51:51;3.60;;;1.38;;
41480;SDS011;27217;51.220;5.308;2023-03-15T10:54:20;12.75;;;1.23;;
41480;SDS011;27217;51.220;5.308;2023-03-15T10:56:49;5.88;;;1.20;;
41480;SDS011;27217;51.220;5.308;2023-03-15T10:59:23;7.82;;;1.65;;
41480;SDS011;27217;51.220;5.308;2023-03-15T11:01:51;5.88;;;1.60;;
41480;SDS011;27217;51.220;5.308;2023-03-15T11:04:31;10.45;;;1.33;;
41480;SDS011;27217;51.220;5.308;2023-03-15T11:06:59;6.28;;;1.50;;
41480;SDS011;27217;51.220;5.308;2023-03-15T11:09:36;21.13;;;1.95;;
41480;SDS011;27217;51.220;5.308;2023-03-15T11:12:09;5.22;;;1.20;;
41480;SDS011;27217;51.220;5.308;2023-03-15T11:14:42;6.72;;;1.60;;
41480;SDS011;27217;51.220;5.308;2023-03-15T11:17:17;4.70;;;1.13;;
41480;SDS011;27217;51.220;5.308;2023-03-15T11:19:56;4.25;;;1.17;;
41480;SDS011;27217;51.220;5.308;2023-03-15T11:22:42;5.57;;;0.98;;
41480;SDS011;27217;51.220;5.308;2023-03-15T11:25:15;4.22;;;1.30;;
41480;SDS011;27217;51.220;5.308;2023-03-15T11:27:41;4.85;;;1.45;;
41480;SDS011;27217;51.220;5.308;2023-03-15T11:30:12;2.40;;;0.43;;
41480;SDS011;27217;51.220;5.308;2023-03-15T11:32:40;7.15;;;0.90;;
41480;SDS011;27217;51.220;5.308;2023-03-15T11:35:18;7.00;;;0.73;;
41480;SDS011;27217;51.220;5.308;2023-03-15T11:37:54;8.20;;;1.35;;
41480;SDS011;27217;51.220;5.308;2023-03-15T11:40:32;6.05;;;1.40;;
41480;SDS011;27217;51.220;5.308;2023-03-15T11:43:03;4.18;;;0.75;;
41480;SDS011;27217;51.220;5.308;2023-03-15T11:46:20;3.55;;;0.85;;
41480;SDS011;27217;51.220;5.308;2023-03-15T11:48:26;3.72;;;0.85;;
41480;SDS011;27217;51.220;5.308;2023-03-15T11:51:06;5.07;;;1.25;;
41480;SDS011;27217;51.220;5.308;2023-03-15T11:53:43;12.20;;;1.63;;
41480;SDS011;27217;51.220;5.308;2023-03-15T11:56:19;4.30;;;1.13;;
41480;SDS011;27217;51.220;5.308;2023-03-15T11:59:06;6.15;;;0.80;;
41480;SDS011;27217;51.220;5.308;2023-03-15T12:01:35;3.92;;;1.20;;
41480;SDS011;27217;51.220;5.308;2023-03-15T12:06:49;4.40;;;1.25;;
41480;SDS011;27217;51.220;5.308;2023-03-15T12:12:00;3.17;;;1.33;;
41480;SDS011;27217;51.220;5.308;2023-03-15T12:19:55;2.45;;;1.00;;
41480;SDS011;27217;51.220;5.308;2023-03-15T12:22:33;4.35;;;1.00;;
41480;SDS011;27217;51.220;5.308;2023-03-15T12:25:07;6.95;;;0.95;;
41480;SDS011;27217;51.220;5.308;2023-03-15T12:27:35;7.28;;;1.67;;
41480;SDS011;27217;51.220;5.308;2023-03-15T12:30:05;1.83;;;1.00;;
41480;SDS011;27217;51.220;5.308;2023-03-15T12:32:42;3.15;;;0.98;;
41480;SDS011;27217;51.220;5.308;2023-03-15T12:35:17;1.85;;;0.95;;
41480;SDS011;27217;51.220;5.308;2023-03-15T12:37:46;5.30;;;1.15;;
41480;SDS011;27217;51.220;5.308;2023-03-15T12:53:21;3.00;;;1.10;;
41480;SDS011;27217;51.220;5.308;2023-03-15T12:55:48;5.57;;;1.52;;
41480;SDS011;27217;51.220;5.308;2023-03-15T12:58:16;3.35;;;1.95;;
41480;SDS011;27217;51.220;5.308;2023-03-15T13:00:46;2.38;;;1.75;;
41480;SDS011;27217;51.220;5.308;2023-03-15T13:03:20;2.53;;;1.35;;
41480;SDS011;27217;51.220;5.308;2023-03-15T13:05:51;4.25;;;1.48;;
41480;SDS011;27217;51.220;5.308;2023-03-15T13:08:30;3.33;;;1.50;;
41480;SDS011;27217;51.220;5.308;2023-03-15T13:13:54;3.25;;;1.50;;
41480;SDS011;27217;51.220;5.308;2023-03-15T13:19:16;6.33;;;1.43;;
41480;SDS011;27217;51.220;5.308;2023-03-15T13:22:03;1.70;;;1.10;;
41480;SDS011;27217;51.220;5.308;2023-03-15T13:36:00;5.00;;;1.60;;
41480;SDS011;27217;51.220;5.308;2023-03-15T13:38:37;2.00;;;1.20;;
41480;SDS011;27217;51.220;5.308;2023-03-15T13:41:14;1.67;;;1.00;;
41480;SDS011;27217;51.220;5.308;2023-03-15T13:43:54;2.78;;;1.63;;
41480;SDS011;27217;51.220;5.308;2023-03-15T13:46:28;3.08;;;1.80;;
41480;SDS011;27217;51.220;5.308;2023-03-15T13:48:55;6.10;;;1.23;;
41480;SDS011;27217;51.220;5.308;2023-03-15T13:51:25;5.45;;;1.30;;
41480;SDS011;27217;51.220;5.308;2023-03-15T13:53:56;1.98;;;1.08;;
41480;SDS011;27217;51.220;5.308;2023-03-15T13:56:30;2.85;;;1.13;;
41480;SDS011;27217;51.220;5.308;2023-03-15T13:58:58;2.55;;;1.15;;
41480;SDS011;27217;51.220;5.308;2023-03-15T14:01:26;3.58;;;1.48;;
41480;SDS011;27217;51.220;5.308;2023-03-15T14:03:58;2.22;;;1.23;;
41480;SDS011;27217;51.220;5.308;2023-03-15T14:06:29;4.25;;;1.30;;
41480;SDS011;27217;51.220;5.308;2023-03-15T14:09:00;2.58;;;1.30;;
41480;SDS011;27217;51.220;5.308;2023-03-15T14:11:34;3.17;;;1.10;;
41480;SDS011;27217;51.220;5.308;2023-03-15T14:14:13;2.20;;;1.10;;
41480;SDS011;27217;51.220;5.308;2023-03-15T14:16:47;2.90;;;0.98;;
41480;SDS011;27217;51.220;5.308;2023-03-15T14:21:41;1.13;;;1.05;;
41480;SDS011;27217;51.220;5.308;2023-03-15T14:24:24;1.80;;;0.88;;
41480;SDS011;27217;51.220;5.308;2023-03-15T14:26:53;0.95;;;0.70;;
41480;SDS011;27217;51.220;5.308;2023-03-15T14:29:24;1.85;;;0.90;;
41480;SDS011;27217;51.220;5.308;2023-03-15T14:32:06;4.70;;;0.95;;
41480;SDS011;27217;51.220;5.308;2023-03-15T14:34:46;1.77;;;1.00;;
41480;SDS011;27217;51.220;5.308;2023-03-15T14:37:27;2.38;;;1.10;;
41480;SDS011;27217;51.220;5.308;2023-03-15T14:40:03;5.50;;;1.40;;
41480;SDS011;27217;51.220;5.308;2023-03-15T14:42:42;2.35;;;1.27;;
41480;SDS011;27217;51.220;5.308;2023-03-15T14:45:08;4.05;;;0.98;;
41480;SDS011;27217;51.220;5.308;2023-03-15T14:47:38;2.63;;;1.27;;
41480;SDS011;27217;51.220;5.308;2023-03-15T14:50:12;4.75;;;1.58;;
41480;SDS011;27217;51.220;5.308;2023-03-15T14:52:40;2.25;;;1.00;;
41480;SDS011;27217;51.220;5.308;2023-03-15T14:55:10;5.03;;;1.27;;
41480;SDS011;27217;51.220;5.308;2023-03-15T14:57:41;3.10;;;1.38;;
41480;SDS011;27217;51.220;5.308;2023-03-15T15:00:09;4.07;;;1.40;;
41480;SDS011;27217;51.220;5.308;2023-03-15T15:02:47;2.97;;;1.17;;
41480;SDS011;27217;51.220;5.308;2023-03-15T15:07:45;1.70;;;1.08;;
41480;SDS011;27217;51.220;5.308;2023-03-15T15:10:12;3.05;;;1.25;;
41480;SDS011;27217;51.220;5.308;2023-03-15T15:12:39;2.10;;;1.30;;
41480;SDS011;27217;51.220;5.308;2023-03-15T15:15:08;5.57;;;1.38;;
41480;SDS011;27217;51.220;5.308;2023-03-15T15:17:43;7.80;;;0.95;;
41480;SDS011;27217;51.220;5.308;2023-03-15T15:20:09;6.10;;;1.50;;
41480;SDS011;27217;51.220;5.308;2023-03-15T15:22:41;2.85;;;1.35;;
41480;SDS011;27217;51.220;5.308;2023-03-15T15:25:18;2.35;;;1.35;;
41480;SDS011;27217;51.220;5.308;2023-03-15T15:27:48;2.72;;;1.33;;
41480;SDS011;27217;51.220;5.308;2023-03-15T15:30:16;3.97;;;1.25;;
41480;SDS011;27217;51.220;5.308;2023-03-15T15:35:13;3.97;;;1.55;;
41480;SDS011;27217;51.220;5.308;2023-03-15T15:37:41;3.35;;;0.98;;
41480;SDS011;27217;51.220;5.308;2023-03-15T15:43:08;7.93;;;1.30;;
41480;SDS011;27217;51.220;5.308;2023-03-15T15:45:35;5.10;;;1.30;;
41480;SDS011;27217;51.220;5.308;2023-03-15T15:48:02;2.25;;;1.25;;
41480;SDS011;27217;51.220;5.308;2023-03-15T15:50:30;1.83;;;1.30;;
41480;SDS011;27217;51.220;5.308;2023-03-15T15:53:01;4.50;;;1.40;;
41480;SDS011;27217;51.220;5.308;2023-03-15T15:55:33;5.07;;;1.50;;
41480;SDS011;27217;51.220;5.308;2023-03-15T16:00:27;2.83;;;1.65;;
41480;SDS011;27217;51.220;5.308;2023-03-15T16:02:55;4.35;;;1.38;;
41480;SDS011;27217;51.220;5.308;2023-03-15T16:05:22;5.85;;;1.58;;
41480;SDS011;27217;51.220;5.308;2023-03-15T16:07:51;1.63;;;1.13;;
41480;SDS011;27217;51.220;5.308;2023-03-15T16:10:23;2.50;;;1.50;;
41480;SDS011;27217;51.220;5.308;2023-03-15T16:12:51;3.13;;;1.20;;
41480;SDS011;27217;51.220;5.308;2023-03-15T16:15:19;2.95;;;1.30;;
41480;SDS011;27217;51.220;5.308;2023-03-15T16:17:46;3.58;;;1.25;;
41480;SDS011;27217;51.220;5.308;2023-03-15T16:20:13;1.75;;;1.27;;
41480;SDS011;27217;51.220;5.308;2023-03-15T16:22:44;5.60;;;1.40;;
41480;SDS011;27217;51.220;5.308;2023-03-15T16:25:22;1.95;;;1.08;;
41480;SDS011;27217;51.220;5.308;2023-03-15T16:27:54;3.38;;;1.20;;
41480;SDS011;27217;51.220;5.308;2023-03-15T16:30:22;5.10;;;1.65;;
41480;SDS011;27217;51.220;5.308;2023-03-15T16:32:52;5.32;;;1.55;;